Time;durP1;ratioP1;P1;durP2;ratioP2;P2;SDS_P1;SDS_P2;PMS_P1;PMS_P2;Temp;Humidity;BMP_temperature;BMP_pressure;BME280_temperature;BME280_humidity;BME280_pressure;Samples;Min_cycle;Max_cycle;Signal;HPM_P1;HPM_P2
2022/01/09 00:00:21;;;;;;;321.80;218.75;;;;;;;25.16;36.41;100797.00;5124895;27;20387;-43
2022/01/09 00:02:49;;;;;;;303.92;213.13;;;;;;;25.08;36.44;100788.25;5124609;27;20158;-47
2022/01/09 00:05:18;;;;;;;316.50;220.27;;;;;;;25.12;36.63;100784.75;5124845;27;20589;-43
2022/01/09 00:07:51;;;;;;;305.05;208.70;;;;;;;25.14;36.49;100793.53;5124435;27;20047;-42
2022/01/09 00:10:20;;;;;;;321.10;221.70;;;;;;;25.10;36.32;100790.00;5124954;27;20395;-43
2022/01/09 00:12:48;;;;;;;307.15;219.20;;;;;;;25.09;36.66;100782.13;5107011;27;20031;-42
2022/01/09 00:15:17;;;;;;;323.27;220.07;;;;;;;25.03;36.62;100783.84;5124523;27;20031;-44
2022/01/09 00:17:45;;;;;;;311.77;217.10;;;;;;;24.98;36.70;100769.84;5124745;27;20034;-43
2022/01/09 00:20:14;;;;;;;314.67;221.43;;;;;;;25.02;36.28;100765.47;5124169;27;20086;-43
2022/01/09 00:22:47;;;;;;;308.90;216.18;;;;;;;24.97;36.81;100762.81;5124426;27;20031;-43
2022/01/09 00:25:17;;;;;;;311.02;218.95;;;;;;;24.98;36.43;100769.84;5105559;28;20088;-43
2022/01/09 00:27:46;;;;;;;330.30;226.50;;;;;;;25.03;36.31;100765.47;5123916;28;20019;-43
2022/01/09 00:30:17;;;;;;;313.25;219.40;;;;;;;24.98;36.77;100774.19;5124071;28;20031;-43
2022/01/09 00:32:45;;;;;;;311.25;218.50;;;;;;;24.99;36.48;100766.31;5124253;28;20027;-43
2022/01/09 00:35:14;;;;;;;319.85;223.45;;;;;;;24.93;36.66;100766.28;5123911;28;20031;-43
2022/01/09 00:37:43;;;;;;;327.88;230.38;;;;;;;24.89;36.98;100775.00;5124784;28;20027;-43
2022/01/09 00:40:13;;;;;;;319.67;224.82;;;;;;;24.86;36.81;100770.63;5124507;28;20042;-45
2022/01/09 00:42:42;;;;;;;316.80;226.85;;;;;;;24.92;36.65;100774.13;5124531;28;20472;-43
2022/01/09 00:45:12;;;;;;;326.70;228.32;;;;;;;24.91;36.64;100801.25;5124125;28;20106;-43
2022/01/09 00:47:41;;;;;;;323.63;226.07;;;;;;;24.84;36.63;100824.84;5124837;27;20027;-42
2022/01/09 00:50:11;;;;;;;321.35;224.75;;;;;;;24.83;36.95;100774.94;5128646;27;20030;-43
2022/01/09 00:53:11;;;;;;;307.50;216.65;;;;;;;24.86;36.83;100780.22;5128352;27;20736;-43
2022/01/09 00:55:39;;;;;;;332.00;231.30;;;;;;;24.84;36.66;100771.47;5128481;27;20035;-42
2022/01/09 00:58:08;;;;;;;322.38;225.85;;;;;;;24.80;36.92;100764.47;5128531;27;20031;-42
2022/01/09 01:00:39;;;;;;;326.45;229.20;;;;;;;24.80;37.04;100764.47;5127848;27;20451;-43
2022/01/09 01:03:08;;;;;;;334.23;233.20;;;;;;;24.77;37.15;100759.19;5128041;27;20047;-43
2022/01/09 01:05:37;;;;;;;325.70;228.20;;;;;;;24.77;36.84;100772.31;5128207;27;20396;-42
2022/01/09 01:08:05;;;;;;;339.80;239.77;;;;;;;24.72;37.38;100773.16;5127987;27;20061;-42
2022/01/09 01:10:34;;;;;;;353.08;241.88;;;;;;;24.74;37.08;100770.53;5128045;27;20034;-43
2022/01/09 01:13:02;;;;;;;352.73;244.15;;;;;;;24.69;37.12;100767.84;5127606;27;20483;-43
2022/01/09 01:15:31;;;;;;;355.67;251.02;;;;;;;24.71;37.38;100797.63;5127959;27;20110;-43
2022/01/09 01:17:58;;;;;;;341.88;242.60;;;;;;;24.79;36.92;100820.44;5127767;27;20035;-43
2022/01/09 01:20:27;;;;;;;354.27;245.07;;;;;;;24.71;37.20;100788.88;5127767;27;20031;-43
2022/01/09 01:22:58;;;;;;;346.60;243.50;;;;;;;24.77;37.29;100778.41;5127220;27;20054;-42
2022/01/09 01:25:27;;;;;;;333.15;238.75;;;;;;;24.72;37.01;100788.03;5127384;27;20074;-43
2022/01/09 01:27:55;;;;;;;346.48;243.13;;;;;;;24.74;37.00;100770.53;5127001;27;20027;-43
2022/01/09 01:30:24;;;;;;;328.17;238.63;;;;;;;24.71;37.23;100774.00;5127523;27;20023;-42
2022/01/09 01:32:52;;;;;;;353.08;243.25;;;;;;;24.68;37.26;100773.09;5127760;27;20430;-42
2022/01/09 01:35:22;;;;;;;353.42;246.43;;;;;;;24.64;37.44;100768.69;5127008;27;20076;-43
2022/01/09 01:37:51;;;;;;;354.73;248.50;;;;;;;24.64;37.19;100763.44;5126379;27;20032;-43
2022/01/09 01:40:19;;;;;;;354.20;249.05;;;;;;;24.64;37.22;100779.19;5126808;27;20479;-44
2022/01/09 01:42:48;;;;;;;361.00;247.00;;;;;;;24.65;37.51;100775.69;5127417;27;20169;-42
2022/01/09 01:45:17;;;;;;;354.70;248.80;;;;;;;24.58;37.65;100774.78;5108915;27;20392;-44
2022/01/09 01:47:46;;;;;;;352.45;249.57;;;;;;;24.55;37.48;100774.75;5126882;27;20027;-44
2022/01/09 01:50:16;;;;;;;354.80;245.40;;;;;;;24.57;37.41;100768.63;5127348;27;20052;-43
2022/01/09 01:52:48;;;;;;;359.50;256.75;;;;;;;24.60;37.78;100772.16;5126903;27;20054;-43
2022/01/09 01:55:17;;;;;;;367.38;255.75;;;;;;;24.58;37.33;100764.28;5109056;27;20038;-44
2022/01/09 01:57:46;;;;;;;357.38;253.27;;;;;;;24.55;37.69;100765.16;5127240;27;20413;-44
2022/01/09 02:00:17;;;;;;;363.48;258.50;;;;;;;24.53;37.81;100763.34;5125819;27;20077;-43
2022/01/09 02:02:46;;;;;;;367.52;257.25;;;;;;;24.52;37.67;100757.25;5126789;27;20067;-43
2022/01/09 02:05:15;;;;;;;358.50;252.40;;;;;;;24.54;37.66;100754.63;5126717;27;20042;-43
2022/01/09 02:07:43;;;;;;;361.52;255.48;;;;;;;24.54;37.73;100746.75;5126764;27;20420;-43
2022/01/09 02:10:12;;;;;;;372.25;257.17;;;;;;;24.55;37.42;100741.53;5108755;27;20027;-42
2022/01/09 02:12:41;;;;;;;360.67;256.63;;;;;;;24.55;37.49;100756.38;5127037;27;20481;-46
2022/01/09 02:15:48;;;;;;;365.42;258.48;;;;;;;24.54;37.75;100747.66;5108611;27;20369;-43
2022/01/09 02:18:17;;;;;;;359.50;254.00;;;;;;;24.50;37.93;100750.22;5125737;27;20039;-43
2022/01/09 02:20:46;;;;;;;347.92;253.30;;;;;;;24.44;37.88;100753.69;5126981;27;20031;-44
2022/01/09 02:23:16;;;;;;;367.58;258.92;;;;;;;24.47;37.52;100758.09;5126863;27;20049;-43
2022/01/09 02:25:46;;;;;;;369.70;263.63;;;;;;;24.47;37.94;100743.22;5126656;27;20480;-42
2022/01/09 02:28:16;;;;;;;367.40;262.38;;;;;;;24.50;37.50;100752.84;5126309;27;20027;-43
2022/01/09 02:30:45;;;;;;;362.67;259.73;;;;;;;24.45;37.74;100757.19;5126753;27;20056;-43
2022/01/09 02:33:17;;;;;;;366.25;259.60;;;;;;;24.43;37.99;100765.03;5126455;27;20114;-43
2022/01/09 02:35:49;;;;;;;385.73;267.48;;;;;;;24.43;38.05;100763.31;5126406;27;20134;-43
2022/01/09 02:38:17;;;;;;;364.17;257.13;;;;;;;24.42;37.59;100750.16;5126360;27;20031;-45
2022/01/09 02:40:50;;;;;;;359.17;248.07;;;;;;;24.43;37.93;100767.66;5126672;27;20031;-44
2022/01/09 02:43:18;;;;;;;348.83;247.30;;;;;;;24.40;37.42;100758.03;5108512;27;20020;-42
2022/01/09 02:45:52;;;;;;;337.10;236.25;;;;;;;24.37;37.74;100744.03;5126306;27;20039;-43
2022/01/09 02:48:21;;;;;;;346.83;237.30;;;;;;;24.34;37.33;100750.09;5126229;27;20031;-43
2022/01/09 02:51:00;;;;;;;324.00;229.07;;;;;;;24.38;37.44;100751.88;5126398;27;20031;-43
2022/01/09 02:53:33;;;;;;;330.35;236.75;;;;;;;24.35;37.52;100759.72;5126189;27;20027;-44
2022/01/09 02:56:05;;;;;;;328.10;229.82;;;;;;;24.34;37.27;100752.72;5125489;27;20528;-43
2022/01/09 02:58:34;;;;;;;315.10;221.10;;;;;;;24.30;37.40;100771.94;5126234;27;20037;-43
2022/01/09 03:01:04;;;;;;;327.45;229.65;;;;;;;24.30;37.72;100766.69;5125931;27;20464;-43
2022/01/09 03:03:33;;;;;;;334.15;231.98;;;;;;;24.27;37.46;100774.53;5125509;27;20093;-42
2022/01/09 03:06:02;;;;;;;331.92;231.85;;;;;;;24.30;37.50;100771.94;5125468;27;20126;-45
2022/01/09 03:08:31;;;;;;;329.23;234.10;;;;;;;24.28;37.73;100771.91;5125753;27;20034;-43
2022/01/09 03:10:59;;;;;;;349.40;239.90;;;;;;;24.28;37.95;100763.19;5125312;27;20027;-43
2022/01/09 03:13:28;;;;;;;335.17;239.90;;;;;;;24.22;37.70;100761.38;5125793;27;20123;-47
2022/01/09 03:15:56;;;;;;;348.10;243.90;;;;;;;24.23;37.53;100752.66;5125728;27;20484;-42
2022/01/09 03:18:25;;;;;;;353.88;245.60;;;;;;;24.28;37.63;100752.69;5125721;27;20035;-43
2022/01/09 03:20:53;;;;;;;352.42;246.20;;;;;;;24.28;37.68;100750.94;5124889;27;20472;-43
2022/01/09 03:23:22;;;;;;;362.30;253.25;;;;;;;24.21;37.91;100750.88;5125707;27;20423;-43
2022/01/09 03:25:50;;;;;;;359.42;247.50;;;;;;;24.23;38.11;100749.16;5125386;27;20031;-44
2022/01/09 03:28:17;;;;;;;366.15;257.15;;;;;;;24.18;38.08;100763.94;5107412;27;20043;-43
2022/01/09 03:30:46;;;;;;;355.10;249.73;;;;;;;24.17;38.17;100762.19;5125499;27;20047;-43
2022/01/09 03:33:15;;;;;;;369.55;254.70;;;;;;;24.26;38.15;100765.75;5125172;27;20029;-43
2022/01/09 03:35:43;;;;;;;363.45;252.55;;;;;;;24.26;37.87;100767.53;5125062;27;20039;-43
2022/01/09 03:38:12;;;;;;;344.00;247.50;;;;;;;24.23;37.96;100754.38;5125071;27;20069;-43
2022/01/09 03:40:40;;;;;;;339.25;239.15;;;;;;;24.20;37.91;100760.50;5125496;27;20134;-43
2022/01/09 03:43:09;;;;;;;353.50;249.85;;;;;;;24.07;38.04;100756.88;5125371;27;20020;-44
2022/01/09 03:45:38;;;;;;;361.05;256.10;;;;;;;24.08;38.39;100758.63;5107016;27;20027;-46
2022/01/09 03:48:06;;;;;;;359.10;253.85;;;;;;;24.07;38.51;100762.13;5125170;27;20031;-42
2022/01/09 03:50:35;;;;;;;355.27;251.40;;;;;;;24.09;38.24;100762.13;5124496;27;20034;-42
2022/01/09 03:53:04;;;;;;;358.60;254.52;;;;;;;24.07;38.44;100766.50;5125058;27;20038;-47
2022/01/09 03:55:33;;;;;;;365.35;256.38;;;;;;;24.07;38.01;100767.34;5124368;27;20412;-43
2022/01/09 03:58:01;;;;;;;365.25;253.45;;;;;;;24.05;38.33;100758.59;5124819;27;20080;-42
2022/01/09 04:00:30;;;;;;;359.83;253.32;;;;;;;24.06;38.02;100754.25;5125146;27;20498;-42
2022/01/09 04:02:58;;;;;;;361.98;259.63;;;;;;;24.05;38.37;100748.13;5124175;27;20130;-43
2022/01/09 04:05:27;;;;;;;372.25;260.25;;;;;;;24.06;38.35;100743.75;5124036;27;20068;-43
2022/01/09 04:07:55;;;;;;;363.48;257.55;;;;;;;24.08;38.14;100737.66;5123984;27;20423;-43
2022/01/09 04:10:28;;;;;;;356.42;252.00;;;;;;;24.07;38.45;100743.78;5123774;27;20259;-43
2022/01/09 04:13:00;;;;;;;356.88;255.48;;;;;;;24.04;38.29;100738.50;5124640;27;20031;-44
2022/01/09 04:15:30;;;;;;;362.73;259.85;;;;;;;24.09;38.22;100738.53;5124464;27;20472;-42
2022/01/09 04:17:59;;;;;;;369.23;255.32;;;;;;;24.05;38.51;100736.78;5124426;27;20122;-42
2022/01/09 04:20:30;;;;;;;369.73;262.67;;;;;;;24.04;38.57;100741.13;5124832;27;20110;-44
2022/01/09 04:22:59;;;;;;;382.33;270.45;;;;;;;24.05;38.68;100742.00;5124125;27;20031;-42
2022/01/09 04:25:28;;;;;;;370.80;265.25;;;;;;;24.02;38.31;100739.34;5124774;27;20039;-43
2022/01/09 04:27:57;;;;;;;373.27;268.70;;;;;;;24.00;38.48;100736.69;5125009;27;20027;-44
2022/01/09 04:30:26;;;;;;;374.52;262.67;;;;;;;24.03;38.43;100735.88;5123873;28;20031;-43
2022/01/09 04:32:54;;;;;;;382.45;267.73;;;;;;;23.99;38.76;100744.56;5124136;28;20887;-43
2022/01/09 04:35:23;;;;;;;382.48;270.48;;;;;;;23.99;38.29;100747.19;5124010;28;20027;-44
2022/01/09 04:37:52;;;;;;;378.58;273.13;;;;;;;24.01;38.35;100750.69;5124180;28;20621;-45
2022/01/09 04:40:21;;;;;;;385.70;267.13;;;;;;;23.99;38.75;100755.03;5124408;28;20030;-43
2022/01/09 04:42:54;;;;;;;385.88;272.13;;;;;;;23.94;38.87;100740.13;5124287;28;20441;-43
2022/01/09 04:45:25;;;;;;;381.10;271.25;;;;;;;24.00;38.92;100741.94;5123773;28;20039;-43
2022/01/09 04:47:55;;;;;;;384.98;272.10;;;;;;;23.99;38.62;100742.84;5123943;28;20031;-43
2022/01/09 04:50:26;;;;;;;375.10;272.63;;;;;;;23.93;38.39;100740.97;5123929;28;20023;-44
2022/01/09 04:53:00;;;;;;;379.70;274.92;;;;;;;23.96;38.83;100732.28;5124390;28;20033;-43
2022/01/09 04:55:30;;;;;;;388.70;276.23;;;;;;;23.93;38.94;100724.41;5124327;28;20255;-44
2022/01/09 04:57:58;;;;;;;383.63;271.85;;;;;;;23.93;38.49;100725.25;5124516;28;20079;-44
2022/01/09 05:00:27;;;;;;;390.48;275.27;;;;;;;23.91;38.83;100718.25;5124097;28;20062;-45
2022/01/09 05:02:56;;;;;;;389.10;281.55;;;;;;;23.93;38.50;100713.91;5123817;28;20047;-44
2022/01/09 05:05:25;;;;;;;381.80;272.92;;;;;;;23.91;38.60;100707.78;5123752;28;20399;-44
2022/01/09 05:07:54;;;;;;;381.58;278.60;;;;;;;23.87;38.78;100724.31;5123579;28;20404;-49
2022/01/09 05:10:23;;;;;;;397.42;281.88;;;;;;;23.88;38.80;100708.63;5123872;28;20027;-46
2022/01/09 05:12:51;;;;;;;387.52;273.27;;;;;;;23.90;38.94;100712.16;5124182;28;20556;-45
2022/01/09 05:15:20;;;;;;;374.30;273.27;;;;;;;23.89;38.88;100709.50;5123913;28;20031;-43
2022/01/09 05:17:50;;;;;;;379.52;275.75;;;;;;;23.86;38.75;100714.69;5124173;28;20080;-51
2022/01/09 05:20:17;;;;;;;379.67;270.05;;;;;;;23.86;38.85;100714.69;5105667;28;20091;-44
2022/01/09 05:22:46;;;;;;;393.83;281.13;;;;;;;23.89;38.69;100725.22;5123981;28;20019;-43
2022/01/09 05:25:14;;;;;;;386.65;273.85;;;;;;;23.86;38.78;100725.19;5123509;28;20768;-47
2022/01/09 05:27:43;;;;;;;389.95;273.25;;;;;;;23.86;38.79;100718.22;5123815;28;20035;-47
2022/01/09 05:30:12;;;;;;;382.60;275.40;;;;;;;23.84;38.76;100714.69;5105586;28;20433;-50
2022/01/09 05:32:40;;;;;;;388.33;277.70;;;;;;;23.81;38.72;100715.56;5123833;28;20102;-43
2022/01/09 05:35:09;;;;;;;393.85;280.98;;;;;;;23.85;39.06;100715.56;5126534;27;20166;-43
2022/01/09 05:37:38;;;;;;;393.23;280.80;;;;;;;23.82;38.64;100714.69;5127614;27;20402;-44
2022/01/09 05:40:06;;;;;;;388.90;280.15;;;;;;;23.89;39.03;100719.97;5127640;27;20023;-43
2022/01/09 05:42:35;;;;;;;391.17;280.27;;;;;;;23.83;38.91;100718.19;5127436;27;20115;-48
2022/01/09 05:45:04;;;;;;;386.05;278.42;;;;;;;23.82;38.80;100717.31;5127503;27;20116;-45
2022/01/09 05:47:33;;;;;;;390.13;277.80;;;;;;;23.86;38.84;100722.56;5127654;27;20029;-43
2022/01/09 05:50:01;;;;;;;388.48;279.73;;;;;;;23.96;38.56;100713.94;5127579;27;20042;-43
2022/01/09 05:52:30;;;;;;;401.33;285.52;;;;;;;23.94;38.70;100713.06;5109615;27;20553;-44
2022/01/09 05:54:58;;;;;;;391.65;285.67;;;;;;;23.85;38.62;100711.22;5127185;27;20031;-47
2022/01/09 05:57:27;;;;;;;393.65;282.33;;;;;;;23.81;38.85;100718.19;5127142;27;20058;-47
2022/01/09 05:59:56;;;;;;;385.65;283.48;;;;;;;23.81;39.24;100718.19;5127134;27;20035;-43
2022/01/09 06:02:23;;;;;;;396.10;285.15;;;;;;;23.80;39.01;100711.19;5127082;27;20272;-43
2022/01/09 06:04:52;;;;;;;401.63;284.15;;;;;;;23.78;39.20;100710.28;5126966;27;20035;-46
2022/01/09 06:07:21;;;;;;;394.20;284.20;;;;;;;23.73;39.31;100705.88;5127206;27;20058;-49
2022/01/09 06:09:50;;;;;;;401.90;287.88;;;;;;;23.80;38.88;100699.81;5127168;27;20028;-44
2022/01/09 06:12:18;;;;;;;401.88;292.00;;;;;;;23.73;39.12;100708.50;5108451;27;20023;-46
2022/01/09 06:14:47;;;;;;;407.55;293.00;;;;;;;23.75;39.03;100704.13;5126523;27;20112;-43
2022/01/09 06:17:16;;;;;;;410.02;296.08;;;;;;;23.73;39.26;100706.75;5126502;27;20027;-45
2022/01/09 06:19:45;;;;;;;405.00;288.27;;;;;;;23.72;39.21;100712.84;5126987;27;20023;-43
2022/01/09 06:22:18;;;;;;;410.63;293.83;;;;;;;23.74;39.00;100705.00;5126516;27;20023;-43
2022/01/09 06:24:47;;;;;;;409.38;293.02;;;;;;;23.76;39.47;100709.41;5126788;27;20073;-43
2022/01/09 06:27:16;;;;;;;401.73;290.80;;;;;;;23.75;39.33;100704.13;5126347;27;20417;-43
2022/01/09 06:29:45;;;;;;;407.50;293.38;;;;;;;23.72;39.16;100694.50;5126523;27;20361;-45
2022/01/09 06:32:13;;;;;;;408.27;294.02;;;;;;;23.76;39.06;100695.41;5126342;27;20046;-43
2022/01/09 06:34:43;;;;;;;403.38;294.10;;;;;;;23.67;39.25;100688.31;5125366;27;20031;-43
2022/01/09 06:37:12;;;;;;;405.67;291.92;;;;;;;23.69;39.32;100690.97;5107216;27;20027;-42
2022/01/09 06:39:42;;;;;;;417.50;301.27;;;;;;;23.69;39.60;100693.59;5126080;27;20024;-42
2022/01/09 06:42:11;;;;;;;404.05;295.95;;;;;;;23.67;39.55;100693.56;5126445;27;20033;-45
2022/01/09 06:44:40;;;;;;;414.35;298.38;;;;;;;23.70;39.23;100698.84;5126235;27;20065;-43
2022/01/09 06:47:09;;;;;;;412.95;297.77;;;;;;;23.68;39.17;100695.31;5124956;27;20069;-42
2022/01/09 06:49:36;;;;;;;413.92;302.45;;;;;;;23.69;39.61;100684.00;5125969;27;20037;-45
2022/01/09 06:52:05;;;;;;;410.45;297.20;;;;;;;23.73;39.22;100683.16;5126083;27;20059;-43
2022/01/09 06:54:34;;;;;;;408.15;300.10;;;;;;;23.75;39.27;100672.69;5126188;27;20038;-42
2022/01/09 06:57:03;;;;;;;403.02;298.20;;;;;;;23.79;39.13;100692.81;5126164;27;20024;-43
2022/01/09 06:59:31;;;;;;;415.77;301.67;;;;;;;23.77;39.14;100671.84;5126132;27;20113;-43
2022/01/09 07:02:00;;;;;;;412.92;304.30;;;;;;;23.78;39.39;100676.25;5125757;27;20491;-42
2022/01/09 07:04:28;;;;;;;415.92;304.77;;;;;;;23.77;39.45;100671.84;5103284;28;20094;-43
2022/01/09 07:06:58;;;;;;;409.02;302.63;;;;;;;23.81;39.39;100664.91;5103746;28;20068;-42
2022/01/09 07:09:26;;;;;;;415.90;304.60;;;;;;;23.81;39.28;100676.28;5105361;28;20073;-43
2022/01/09 07:11:55;;;;;;;421.88;307.63;;;;;;;23.89;38.99;100664.97;5105300;28;20031;-43
2022/01/09 07:14:23;;;;;;;414.80;307.63;;;;;;;23.85;39.22;100664.06;5105172;28;20053;-42
2022/01/09 07:16:52;;;;;;;416.77;308.58;;;;;;;23.85;39.44;100674.56;5105350;28;20036;-43
2022/01/09 07:19:20;;;;;;;424.27;312.95;;;;;;;23.85;39.53;100676.28;5105213;28;20393;-45
2022/01/09 07:21:49;;;;;;;411.77;305.45;;;;;;;23.89;39.03;100662.34;5104751;28;20023;-42
2022/01/09 07:24:17;;;;;;;421.08;306.70;;;;;;;23.90;39.01;100669.34;5105017;28;20074;-43
2022/01/09 07:26:46;;;;;;;417.92;304.88;;;;;;;23.93;38.99;100669.38;5105653;28;20051;-44
2022/01/09 07:29:15;;;;;;;418.55;303.55;;;;;;;23.94;39.03;100671.13;5105184;28;20080;-43
2022/01/09 07:31:43;;;;;;;414.27;301.73;;;;;;;23.92;39.23;100667.63;5104989;28;20377;-45
2022/01/09 07:34:14;;;;;;;410.80;300.40;;;;;;;23.92;39.03;100678.09;5104742;28;20404;-42
2022/01/09 07:36:42;;;;;;;428.05;310.25;;;;;;;23.91;39.21;100679.81;5104980;28;20024;-43
2022/01/09 07:39:10;;;;;;;418.58;308.08;;;;;;;23.89;39.40;100683.31;5105179;28;20073;-43
2022/01/09 07:41:39;;;;;;;423.65;306.45;;;;;;;23.93;39.53;100687.72;5104462;28;20797;-47
2022/01/09 07:44:08;;;;;;;418.92;308.20;;;;;;;23.91;39.20;100686.81;5104355;28;20089;-43
2022/01/09 07:46:36;;;;;;;411.95;299.05;;;;;;;23.91;39.45;100685.06;5104553;28;20507;-46
2022/01/09 07:49:05;;;;;;;422.95;307.58;;;;;;;23.89;39.25;100675.44;5104502;28;20089;-43
2022/01/09 07:51:33;;;;;;;423.42;306.48;;;;;;;23.92;39.55;100684.19;5103562;28;20039;-43
2022/01/09 07:54:01;;;;;;;429.83;312.92;;;;;;;23.94;39.30;100687.72;5104257;28;20096;-46
2022/01/09 07:56:30;;;;;;;414.63;309.48;;;;;;;23.92;39.37;100683.34;5104336;28;20941;-47
2022/01/09 07:58:58;;;;;;;429.13;315.30;;;;;;;23.90;39.48;100690.31;5102375;28;20085;-50
2022/01/09 08:01:26;;;;;;;427.58;312.88;;;;;;;23.95;39.23;100696.47;5104663;28;20032;-44
2022/01/09 08:03:55;;;;;;;423.70;311.05;;;;;;;23.92;39.16;100693.81;5117261;27;20054;-47
2022/01/09 08:06:23;;;;;;;429.25;313.20;;;;;;;23.93;39.29;100700.81;5124600;27;20031;-52
2022/01/09 08:08:51;;;;;;;421.70;314.27;;;;;;;23.92;39.26;100706.91;5125599;27;20433;-47
2022/01/09 08:11:22;;;;;;;425.73;316.60;;;;;;;23.92;39.73;100699.06;5125000;27;20548;-47
2022/01/09 08:13:51;;;;;;;424.95;314.70;;;;;;;23.94;39.40;100706.06;5124509;27;20508;-49
2022/01/09 08:16:19;;;;;;;426.90;316.00;;;;;;;23.95;39.49;100715.66;5124742;27;20031;-46
2022/01/09 08:18:47;;;;;;;424.50;310.08;;;;;;;24.01;39.01;100714.88;5124668;27;20058;-48
2022/01/09 08:21:19;;;;;;;425.05;313.95;;;;;;;23.78;39.66;100712.91;5124929;27;20023;-46
2022/01/09 08:23:48;;;;;;;423.75;305.40;;;;;;;23.92;39.34;100747.06;5124205;27;20031;-43
2022/01/09 08:26:16;;;;;;;411.80;303.30;;;;;;;23.95;39.24;100735.78;5124760;27;20023;-45
2022/01/09 08:28:47;;;;;;;415.83;303.73;;;;;;;23.91;39.66;100740.06;5106073;27;20063;-45
2022/01/09 08:31:17;;;;;;;423.48;307.50;;;;;;;23.92;39.21;100731.34;5124744;27;20441;-53
2022/01/09 08:33:46;;;;;;;424.55;306.27;;;;;;;23.91;39.25;100732.22;5124388;27;20505;-42
2022/01/09 08:36:14;;;;;;;422.65;310.15;;;;;;;23.91;39.50;100728.75;5106319;28;20031;-42
2022/01/09 08:38:43;;;;;;;417.42;302.67;;;;;;;23.96;39.31;100737.53;5124529;28;20051;-44
2022/01/09 08:41:11;;;;;;;413.88;302.70;;;;;;;23.95;39.44;100733.16;5106642;28;20476;-46
2022/01/09 08:43:39;;;;;;;415.50;301.55;;;;;;;23.98;39.51;100725.34;5123988;28;20039;-45
2022/01/09 08:46:09;;;;;;;405.55;296.25;;;;;;;24.00;39.15;100731.47;5088906;28;21212;-50
2022/01/09 08:48:37;;;;;;;404.67;297.10;;;;;;;24.00;39.57;100726.22;5123902;28;20129;-43
2022/01/09 08:51:06;;;;;;;405.27;296.08;;;;;;;23.95;39.24;100735.78;5106064;28;20114;-47
2022/01/09 08:53:35;;;;;;;409.35;294.83;;;;;;;23.99;39.47;100753.31;5106018;28;20115;-45
2022/01/09 08:56:05;;;;;;;408.90;293.77;;;;;;;23.96;39.34;100753.25;5123953;28;20051;-45
2022/01/09 08:58:34;;;;;;;410.08;292.35;;;;;;;23.97;39.19;100755.91;5124292;28;20063;-43
2022/01/09 09:01:02;;;;;;;401.10;291.00;;;;;;;24.00;39.13;100760.28;5123800;28;20088;-43
2022/01/09 09:03:30;;;;;;;402.48;288.55;;;;;;;23.94;39.23;100766.31;5123237;28;20047;-48
2022/01/09 09:05:59;;;;;;;405.52;289.65;;;;;;;23.82;39.09;100743.50;5123114;28;20045;-43
2022/01/09 09:08:27;;;;;;;407.35;290.52;;;;;;;23.96;39.30;100775.09;5123064;27;20112;-43
2022/01/09 09:10:54;;;;;;;395.88;284.15;;;;;;;24.00;39.13;100773.38;5128281;27;20088;-43
2022/01/09 09:13:23;;;;;;;393.15;281.67;;;;;;;23.98;39.21;100777.75;5109756;27;20049;-48
2022/01/09 09:15:51;;;;;;;400.13;283.75;;;;;;;23.89;39.62;100764.50;5128350;27;20915;-49
2022/01/09 09:21:43;;;;;;;392.23;279.35;;;;;;;23.94;39.31;100763.69;5126729;27;20967;-44
2022/01/09 09:24:12;;;;;;;399.25;284.77;;;;;;;23.99;39.23;100761.19;5109680;27;20035;-47
2022/01/09 09:26:41;;;;;;;403.45;288.33;;;;;;;23.98;39.48;100767.28;5127876;27;20039;-43
2022/01/09 09:29:10;;;;;;;398.85;283.17;;;;;;;23.97;39.45;100769.00;5128028;27;20060;-45
2022/01/09 09:31:38;;;;;;;404.77;288.73;;;;;;;23.92;39.77;100772.41;5127826;27;20037;-43
2022/01/09 09:34:08;;;;;;;395.38;287.30;;;;;;;24.00;39.36;100773.38;5127363;27;20432;-43
2022/01/09 09:36:37;;;;;;;397.88;290.27;;;;;;;23.92;39.73;100769.78;5127927;27;20015;-42
2022/01/09 09:42:20;;;;;;;406.73;289.00;;;;;;;23.93;39.41;100776.78;5083368;28;20039;-47
2022/01/09 09:44:49;;;;;;;403.08;290.15;;;;;;;23.95;39.62;100768.06;5083910;28;20032;-45
2022/01/09 09:47:22;;;;;;;397.80;286.55;;;;;;;24.00;39.46;100770.75;5067209;28;20105;-44
2022/01/09 09:53:12;;;;;;;416.30;294.30;;;;;;;23.98;39.59;100777.75;5082993;28;20047;-44
2022/01/09 09:55:44;;;;;;;410.92;296.75;;;;;;;23.92;39.36;100777.66;5066902;28;20028;-44
2022/01/09 09:58:13;;;;;;;410.95;301.35;;;;;;;23.96;39.49;100779.44;5084074;28;20032;-44
2022/01/09 10:00:40;;;;;;;404.60;292.20;;;;;;;23.99;39.82;100781.25;5050624;28;20028;-44
2022/01/09 10:03:08;;;;;;;417.55;302.67;;;;;;;24.00;39.63;100780.38;5050437;28;20405;-44
2022/01/09 10:05:38;;;;;;;415.60;299.95;;;;;;;24.00;39.74;100788.25;5083605;28;20036;-44
2022/01/09 10:08:16;;;;;;;414.92;304.13;;;;;;;23.93;39.30;100761.06;5083668;28;20059;-44
2022/01/09 10:10:44;;;;;;;409.42;291.95;;;;;;;24.03;39.68;100789.13;5083776;28;20036;-44
2022/01/09 10:13:14;;;;;;;414.70;297.98;;;;;;;23.99;39.74;100774.28;5085178;28;20032;-44
2022/01/09 10:16:01;;;;;;;423.45;302.05;;;;;;;23.99;39.95;100784.75;5086529;28;20071;-45
2022/01/09 10:18:39;;;;;;;412.83;300.20;;;;;;;23.96;39.67;100776.81;5086252;28;20036;-44
2022/01/09 10:21:09;;;;;;;410.20;300.67;;;;;;;23.99;39.93;100776.91;5103402;28;20030;-43
2022/01/09 10:23:57;;;;;;;412.98;294.33;;;;;;;24.05;39.62;100778.69;5086377;28;20081;-43
2022/01/09 10:26:25;;;;;;;410.02;296.27;;;;;;;24.03;39.49;100786.53;5085329;28;20036;-42
2022/01/09 10:28:52;;;;;;;415.35;298.52;;;;;;;24.04;39.63;100790.03;5086200;28;20024;-42
2022/01/09 10:31:19;;;;;;;399.02;291.73;;;;;;;23.99;39.96;100787.38;5085975;28;20039;-42
2022/01/09 10:34:07;;;;;;;418.15;296.90;;;;;;;24.00;40.10;100786.47;5085476;28;20024;-42
2022/01/09 10:36:56;;;;;;;416.80;299.55;;;;;;;24.05;39.91;100779.56;5085960;28;20074;-43
2022/01/09 10:39:25;;;;;;;410.65;298.17;;;;;;;24.05;39.80;100778.69;5085215;28;20028;-43
2022/01/09 10:41:57;;;;;;;409.55;295.92;;;;;;;24.07;39.84;100782.22;5085220;28;20464;-42
2022/01/09 10:44:30;;;;;;;409.17;300.73;;;;;;;24.10;39.71;100788.34;5085080;28;20416;-42
2022/01/09 10:47:04;;;;;;;408.02;298.45;;;;;;;24.09;39.97;100796.19;5085040;28;20060;-45
2022/01/09 10:49:52;;;;;;;412.67;298.07;;;;;;;23.94;39.60;100775.94;5084485;28;20107;-43
2022/01/09 10:52:28;;;;;;;421.13;300.90;;;;;;;24.11;39.91;100792.72;5067101;28;20032;-42
2022/01/09 10:54:57;;;;;;;410.90;300.00;;;;;;;24.11;39.60;100804.94;5085120;28;20040;-43
2022/01/09 10:57:27;;;;;;;417.75;300.30;;;;;;;24.09;39.82;100802.31;5085271;28;20034;-44
2022/01/09 10:59:56;;;;;;;412.67;301.77;;;;;;;24.10;39.55;100798.84;5067039;28;20028;-42
2022/01/09 11:02:23;;;;;;;419.55;305.17;;;;;;;24.07;39.95;100798.81;5100980;27;20118;-45
2022/01/09 11:04:51;;;;;;;411.38;301.92;;;;;;;24.05;40.16;100800.53;5125800;27;20043;-45
2022/01/09 11:07:18;;;;;;;408.60;299.95;;;;;;;24.11;39.93;100799.69;5107390;27;20042;-43
2022/01/09 11:09:48;;;;;;;411.65;297.33;;;;;;;24.09;39.99;100802.31;5125531;27;20072;-42
2022/01/09 11:12:19;;;;;;;406.23;296.65;;;;;;;24.07;40.20;100803.19;5125200;27;20023;-43
2022/01/09 11:14:48;;;;;;;408.88;298.63;;;;;;;24.14;39.87;100804.13;5125754;27;20035;-42